Time;durP1;ratioP1;P1;durP2;ratioP2;P2;SDS_P1;SDS_P2;PMS_P1;PMS_P2;Temp;Humidity;BMP_temperature;BMP_pressure;BME280_temperature;BME280_humidity;BME280_pressure;Samples;Min_cycle;Max_cycle;Signal;HPM_P1;HPM_P2
2022/11/07 00:01:13;;;;;;;6.90;5.10;;;6.90;99.90;;;;;;5080375;28;20424;-55
2022/11/07 00:03:39;;;;;;;7.47;5.40;;;6.90;99.90;;;;;;5083439;28;20428;-61
2022/11/07 00:06:05;;;;;;;6.33;5.07;;;6.90;99.90;;;;;;5075918;28;20501;-54
2022/11/07 00:08:30;;;;;;;9.37;5.30;;;6.80;99.90;;;;;;5086978;28;20177;-55
2022/11/07 00:11:00;;;;;;;11.00;5.87;;;6.80;99.90;;;;;;5087275;28;20178;-55
2022/11/07 00:13:27;;;;;;;7.30;5.73;;;6.80;99.90;;;;;;5074082;28;20271;-56
2022/11/07 00:15:56;;;;;;;7.67;5.30;;;6.80;99.90;;;;;;5084390;28;20455;-55
2022/11/07 00:18:22;;;;;;;7.80;5.67;;;6.70;99.90;;;;;;5077399;28;20419;-54
2022/11/07 00:20:48;;;;;;;9.23;5.90;;;6.70;99.90;;;;;;5084848;28;20458;-55
2022/11/07 00:23:13;;;;;;;7.83;5.97;;;6.60;99.90;;;;;;5087280;28;20181;-54
2022/11/07 00:25:39;;;;;;;9.90;7.23;;;6.60;99.90;;;;;;5089777;28;20198;-54
2022/11/07 00:28:04;;;;;;;10.93;6.63;;;6.50;99.90;;;;;;5087016;28;20649;-52
2022/11/07 00:30:30;;;;;;;9.77;7.40;;;6.30;99.90;;;;;;5084427;28;20265;-55
2022/11/07 00:32:56;;;;;;;11.33;6.90;;;6.20;99.90;;;;;;5086176;28;20280;-54
2022/11/07 00:35:21;;;;;;;10.33;7.50;;;6.10;99.90;;;;;;5088131;28;20263;-54
2022/11/07 00:37:47;;;;;;;9.57;7.47;;;6.00;99.90;;;;;;5079290;28;20185;-55
2022/11/07 00:40:12;;;;;;;10.43;6.83;;;6.00;99.90;;;;;;5076764;28;20174;-54
2022/11/07 00:42:38;;;;;;;9.50;7.20;;;5.90;99.90;;;;;;5080851;28;20184;-55
2022/11/07 00:45:04;;;;;;;10.87;7.10;;;5.80;99.90;;;;;;5084529;28;20687;-52
2022/11/07 00:47:30;;;;;;;9.67;7.30;;;5.80;99.90;;;;;;5077805;28;20185;-56
2022/11/07 00:49:55;;;;;;;11.07;6.70;;;5.80;99.90;;;;;;5076448;28;20409;-55
2022/11/07 00:52:21;;;;;;;9.07;6.70;;;5.80;99.90;;;;;;5085672;28;20200;-61
2022/11/07 00:54:46;;;;;;;13.57;6.73;;;5.80;99.90;;;;;;5084629;28;21714;-54
2022/11/07 00:57:12;;;;;;;9.47;6.57;;;5.80;99.90;;;;;;5082769;28;20169;-54
2022/11/07 00:59:37;;;;;;;8.30;6.37;;;5.80;99.90;;;;;;5084215;28;20188;-56
2022/11/07 01:02:03;;;;;;;10.20;6.97;;;5.80;99.90;;;;;;5078830;28;20170;-54
2022/11/07 01:07:13;;;;;;;9.43;6.17;;;5.80;99.90;;;;;;5085129;28;20274;-54
2022/11/07 01:09:38;;;;;;;12.13;7.27;;;5.70;99.90;;;;;;5078020;28;20959;-54
2022/11/07 01:12:04;;;;;;;8.20;6.10;;;5.70;99.90;;;;;;5075828;28;20251;-56
2022/11/07 01:14:30;;;;;;;10.60;6.57;;;5.60;99.90;;;;;;5079393;28;20205;-56
2022/11/07 01:16:56;;;;;;;8.40;6.00;;;5.60;99.90;;;;;;5085676;28;20509;-55
2022/11/07 01:19:21;;;;;;;10.50;6.70;;;5.60;99.90;;;;;;5077010;28;20186;-54
2022/11/07 01:21:47;;;;;;;10.00;6.50;;;5.50;99.90;;;;;;5080841;28;20182;-54
2022/11/07 01:24:14;;;;;;;8.27;5.83;;;5.50;99.90;;;;;;5082070;28;20198;-54
2022/11/07 01:26:40;;;;;;;7.80;5.80;;;5.50;99.90;;;;;;5082154;28;20640;-54
2022/11/07 01:29:06;;;;;;;8.27;5.60;;;5.50;99.90;;;;;;5077666;28;20430;-54
2022/11/07 01:31:32;;;;;;;8.03;5.70;;;5.40;99.90;;;;;;5086748;28;20431;-54
2022/11/07 01:33:59;;;;;;;8.43;6.13;;;5.40;99.90;;;;;;5084507;28;20267;-54
2022/11/07 01:36:25;;;;;;;10.30;6.00;;;5.40;99.90;;;;;;5088641;28;20296;-55
2022/11/07 01:38:50;;;;;;;8.30;5.97;;;5.40;99.90;;;;;;5075657;28;20480;-54
2022/11/07 01:41:21;;;;;;;9.40;6.53;;;5.40;99.90;;;;;;5063212;28;20566;-54
2022/11/07 01:44:00;;;;;;;7.77;6.07;;;5.40;99.90;;;;;;5077215;28;20193;-54
2022/11/07 01:46:31;;;;;;;8.50;6.07;;;5.40;99.90;;;;;;5088167;28;20432;-54
2022/11/07 01:49:24;;;;;;;9.80;6.27;;;5.30;99.90;;;;;;5084893;28;20466;-55
2022/11/07 01:52:00;;;;;;;15.57;6.33;;;5.30;99.90;;;;;;5072781;28;20485;-54
2022/11/07 01:54:34;;;;;;;9.60;6.97;;;5.30;99.90;;;;;;5080511;28;20451;-54
2022/11/07 01:57:05;;;;;;;10.10;6.57;;;5.20;99.90;;;;;;5082093;28;20432;-54
2022/11/07 01:59:33;;;;;;;8.80;6.20;;;5.20;99.90;;;;;;5086470;28;20944;-54
2022/11/07 02:01:59;;;;;;;13.13;5.07;;;5.20;99.90;;;;;;5084521;28;20434;-55
2022/11/07 02:04:27;;;;;;;11.17;6.33;;;5.20;99.90;;;;;;5085628;28;20479;-53
2022/11/07 02:07:01;;;;;;;6.63;5.03;;;5.10;99.90;;;;;;5088866;28;20989;-54
2022/11/07 02:09:27;;;;;;;6.47;5.23;;;5.10;99.90;;;;;;5087210;28;20821;-54
2022/11/07 02:11:53;;;;;;;9.37;6.00;;;5.10;99.90;;;;;;5082211;28;21174;-55
2022/11/07 02:14:19;;;;;;;9.43;6.23;;;5.00;99.90;;;;;;5073258;28;20468;-56
2022/11/07 02:16:46;;;;;;;13.23;6.13;;;5.00;99.90;;;;;;5083160;28;20239;-55
2022/11/07 02:19:26;;;;;;;6.40;4.83;;;5.00;99.90;;;;;;5089083;28;20289;-54
2022/11/07 02:22:04;;;;;;;11.93;5.23;;;5.00;99.90;;;;;;5084505;28;21065;-55
2022/11/07 02:24:35;;;;;;;9.33;4.90;;;5.00;99.90;;;;;;5085517;28;20828;-55
2022/11/07 02:27:06;;;;;;;11.57;5.93;;;5.00;99.90;;;;;;5086360;28;20439;-55
2022/11/07 02:29:33;;;;;;;5.87;4.60;;;5.00;99.90;;;;;;5087233;28;21011;-56
2022/11/07 02:32:05;;;;;;;7.67;5.57;;;5.00;99.90;;;;;;5083668;28;20471;-55
2022/11/07 02:34:31;;;;;;;5.93;4.73;;;4.90;99.90;;;;;;5078796;28;20456;-54
2022/11/07 02:36:58;;;;;;;7.70;5.33;;;4.90;99.90;;;;;;5075633;28;20443;-56
2022/11/07 02:39:23;;;;;;;5.60;4.53;;;4.80;99.90;;;;;;5089408;28;20227;-55
2022/11/07 02:41:50;;;;;;;10.33;5.50;;;4.90;99.90;;;;;;5082871;28;20423;-54
2022/11/07 02:44:16;;;;;;;7.93;5.30;;;4.90;99.90;;;;;;5078550;28;20255;-55
2022/11/07 02:46:42;;;;;;;7.07;5.13;;;4.90;99.90;;;;;;5085068;28;20464;-56
2022/11/07 02:49:08;;;;;;;14.90;5.30;;;4.90;99.90;;;;;;5083183;28;20443;-55
2022/11/07 02:51:33;;;;;;;6.90;5.10;;;4.90;99.90;;;;;;5086524;28;20181;-55
2022/11/07 02:53:59;;;;;;;9.53;5.00;;;4.90;99.90;;;;;;5095850;22;20621;-57
2022/11/07 02:56:24;;;;;;;7.40;5.40;;;4.90;99.90;;;;;;5093728;28;20208;-59
2022/11/07 02:58:51;;;;;;;7.07;4.93;;;4.90;99.90;;;;;;5081123;28;20188;-59
2022/11/07 03:01:17;;;;;;;10.70;5.07;;;4.90;99.90;;;;;;5091567;28;20547;-58
2022/11/07 03:03:45;;;;;;;9.00;5.10;;;4.90;99.90;;;;;;5064295;28;20450;-59
2022/11/07 03:06:14;;;;;;;8.17;5.37;;;5.00;99.90;;;;;;5084026;28;20999;-59
2022/11/07 03:08:41;;;;;;;5.67;4.77;;;5.00;99.90;;;;;;5083775;28;20982;-58
2022/11/07 03:11:08;;;;;;;6.80;4.80;;;4.90;99.90;;;;;;5085481;28;20403;-60
2022/11/07 03:13:35;;;;;;;5.27;4.77;;;4.90;99.90;;;;;;5069279;28;20464;-58
2022/11/07 03:16:08;;;;;;;81.87;8.13;;;4.90;99.90;;;;;;5055717;28;20498;-58
2022/11/07 03:18:35;;;;;;;55.80;7.57;;;4.90;99.90;;;;;;5085498;28;20399;-59
2022/11/07 03:21:00;;;;;;;17.33;5.40;;;4.90;99.90;;;;;;5085228;28;20411;-58
2022/11/07 03:23:26;;;;;;;20.60;5.17;;;4.80;99.90;;;;;;5064966;28;20424;-58
2022/11/07 03:25:52;;;;;;;9.97;5.20;;;4.70;99.90;;;;;;5078248;28;20217;-59
2022/11/07 03:28:17;;;;;;;5.93;4.87;;;4.70;99.90;;;;;;5070771;28;20813;-58
2022/11/07 03:30:43;;;;;;;6.20;4.73;;;4.70;99.90;;;;;;5064047;28;20554;-58
2022/11/07 03:33:08;;;;;;;8.23;4.80;;;4.60;99.90;;;;;;5067380;28;20206;-58
2022/11/07 03:35:34;;;;;;;5.50;4.30;;;4.60;99.90;;;;;;5045526;28;20662;-58
2022/11/07 03:38:00;;;;;;;6.60;4.50;;;4.60;99.90;;;;;;5049947;28;20171;-60
2022/11/07 03:40:25;;;;;;;7.43;3.93;;;4.60;99.90;;;;;;5056338;28;20169;-58
2022/11/07 03:42:51;;;;;;;6.27;4.53;;;4.50;99.90;;;;;;5074095;28;20223;-58
2022/11/07 03:45:17;;;;;;;6.50;4.67;;;4.50;99.90;;;;;;5075304;28;20183;-59
2022/11/07 03:47:44;;;;;;;5.20;4.70;;;4.50;99.90;;;;;;5070912;28;20178;-59
2022/11/07 03:50:13;;;;;;;8.30;4.83;;;4.50;99.90;;;;;;5068299;28;20167;-59
2022/11/07 03:52:39;;;;;;;9.03;5.40;;;4.50;99.90;;;;;;5079723;28;21058;-60
2022/11/07 03:55:05;;;;;;;9.57;4.77;;;4.50;99.90;;;;;;5066214;28;20555;-59
2022/11/07 03:57:31;;;;;;;6.50;4.90;;;4.50;99.90;;;;;;5068183;28;20565;-62
2022/11/07 03:59:57;;;;;;;5.90;4.83;;;4.60;99.90;;;;;;5071041;28;20451;-58
2022/11/07 04:02:23;;;;;;;6.67;5.13;;;4.60;99.90;;;;;;5069634;28;20440;-59
2022/11/07 04:04:48;;;;;;;8.60;5.13;;;4.60;99.90;;;;;;5072632;28;20226;-58
2022/11/07 04:07:14;;;;;;;6.97;5.00;;;4.60;99.90;;;;;;5069207;28;20653;-58
2022/11/07 04:09:40;;;;;;;11.53;5.20;;;4.50;99.90;;;;;;5058072;28;20210;-58
2022/11/07 04:17:35;;;;;;;65.50;6.50;;;4.40;99.90;;;;;;5065769;28;20459;-58
2022/11/07 04:20:01;;;;;;;46.40;5.53;;;4.30;99.90;;;;;;5063420;28;20424;-59
2022/11/07 04:22:26;;;;;;;35.47;6.53;;;4.30;99.90;;;;;;5074780;28;20618;-60
2022/11/07 04:24:52;;;;;;;10.93;5.03;;;4.20;99.90;;;;;;5065822;28;20190;-60
2022/11/07 04:30:17;;;;;;;114.53;7.67;;;4.20;99.90;;;;;;5090540;28;20176;-59
2022/11/07 04:32:47;;;;;;;60.03;5.73;;;4.10;99.90;;;;;;5067317;28;20513;-58
2022/11/07 04:35:13;;;;;;;8.80;4.13;;;4.10;99.90;;;;;;5061052;28;20453;-59
2022/11/07 04:37:40;;;;;;;4.93;3.83;;;4.10;99.90;;;;;;5068938;28;20440;-59
2022/11/07 04:40:07;;;;;;;16.50;4.77;;;4.00;99.90;;;;;;5060520;28;20919;-59
2022/11/07 04:42:32;;;;;;;6.73;3.80;;;4.10;99.90;;;;;;5078348;28;20429;-59
2022/11/07 04:44:58;;;;;;;5.40;4.33;;;4.10;99.90;;;;;;5075817;28;20551;-59
2022/11/07 04:47:23;;;;;;;9.90;5.27;;;4.10;99.90;;;;;;5065696;28;20740;-59
2022/11/07 04:49:49;;;;;;;6.80;4.87;;;4.10;99.90;;;;;;5064293;28;20179;-60
2022/11/07 04:52:14;;;;;;;6.00;4.43;;;4.10;99.90;;;;;;5063628;28;20252;-59
2022/11/07 04:54:40;;;;;;;6.80;4.30;;;4.10;99.90;;;;;;5063750;28;20214;-59
2022/11/07 04:57:05;;;;;;;18.13;4.93;;;4.20;99.90;;;;;;5036394;28;20625;-57
2022/11/07 04:59:31;;;;;;;15.77;4.73;;;4.20;99.90;;;;;;5061341;28;20186;-60
2022/11/07 05:01:57;;;;;;;9.13;4.90;;;4.20;99.90;;;;;;5074693;28;20178;-61
2022/11/07 05:04:22;;;;;;;23.33;4.90;;;4.20;99.90;;;;;;5062687;28;20197;-58
2022/11/07 05:06:48;;;;;;;69.93;6.80;;;4.20;99.90;;;;;;5052230;28;20175;-60
2022/11/07 05:09:17;;;;;;;6.13;4.57;;;4.20;99.90;;;;;;5064414;28;20179;-61
2022/11/07 05:11:47;;;;;;;9.57;4.67;;;4.20;99.90;;;;;;5062316;28;20179;-59
2022/11/07 05:14:13;;;;;;;14.20;7.53;;;4.20;99.90;;;;;;5057031;28;20488;-59
2022/11/07 05:16:41;;;;;;;19.73;11.90;;;4.20;99.90;;;;;;5057949;28;20457;-59
2022/11/07 05:19:10;;;;;;;13.53;7.47;;;4.30;99.90;;;;;;5060076;28;20179;-59
2022/11/07 05:21:36;;;;;;;14.27;7.50;;;4.30;99.90;;;;;;5069845;28;20957;-58
2022/11/07 05:24:01;;;;;;;10.33;6.53;;;4.30;99.90;;;;;;5064261;28;20432;-59
2022/11/07 05:26:27;;;;;;;6.70;5.30;;;4.40;99.90;;;;;;5062155;28;20182;-61
2022/11/07 05:28:52;;;;;;;8.40;5.70;;;4.40;99.90;;;;;;5063029;28;20672;-60
2022/11/07 05:31:18;;;;;;;8.73;5.80;;;4.40;99.90;;;;;;5057189;28;20224;-61
2022/11/07 05:33:44;;;;;;;10.10;5.87;;;4.50;99.90;;;;;;5061627;28;20226;-59
2022/11/07 05:36:11;;;;;;;8.00;5.43;;;4.50;99.90;;;;;;5063727;28;20696;-60
2022/11/07 05:38:38;;;;;;;7.20;5.43;;;4.50;99.90;;;;;;5061062;28;20175;-59
2022/11/07 05:41:04;;;;;;;6.77;4.83;;;4.50;99.90;;;;;;5063296;28;20433;-60
2022/11/07 05:43:29;;;;;;;7.10;4.83;;;4.50;99.90;;;;;;5060904;28;20436;-61
2022/11/07 05:45:59;;;;;;;8.10;5.10;;;4.50;99.90;;;;;;5066736;28;20190;-59
2022/11/07 05:48:25;;;;;;;7.07;5.10;;;4.50;99.90;;;;;;5071706;28;20261;-59
2022/11/07 05:50:50;;;;;;;8.90;6.30;;;4.50;99.90;;;;;;5087451;28;20519;-59
2022/11/07 05:53:16;;;;;;;7.47;5.83;;;4.50;99.90;;;;;;5077890;28;20277;-59
2022/11/07 05:55:42;;;;;;;8.70;5.90;;;4.50;99.90;;;;;;5092546;28;20701;-60
2022/11/07 05:58:11;;;;;;;10.20;6.50;;;4.50;99.90;;;;;;5059227;28;20208;-59
2022/11/07 06:00:37;;;;;;;10.47;5.47;;;4.50;99.90;;;;;;5082242;28;20170;-58
2022/11/07 06:03:03;;;;;;;8.70;5.63;;;4.50;99.90;;;;;;5076896;28;20937;-59
2022/11/07 06:05:29;;;;;;;22.10;6.20;;;4.50;99.90;;;;;;5067616;28;20453;-59
2022/11/07 06:07:54;;;;;;;44.27;7.20;;;4.50;99.90;;;;;;5068969;28;20183;-60
2022/11/07 06:10:22;;;;;;;25.20;6.07;;;4.50;99.90;;;;;;5056501;28;20175;-59
2022/11/07 06:12:59;;;;;;;10.10;5.33;;;4.40;99.90;;;;;;5071085;28;20271;-59
2022/11/07 06:15:26;;;;;;;9.13;5.80;;;4.40;99.90;;;;;;5071665;28;20528;-60
2022/11/07 06:17:52;;;;;;;7.97;5.50;;;4.40;99.90;;;;;;5077971;28;20804;-60
2022/11/07 06:20:17;;;;;;;16.80;6.00;;;4.40;99.90;;;;;;5063076;28;20432;-60
2022/11/07 06:22:43;;;;;;;9.00;6.20;;;4.40;99.90;;;;;;5063746;28;20181;-61
2022/11/07 06:25:08;;;;;;;10.63;6.33;;;4.40;99.90;;;;;;5068287;28;20729;-59
2022/11/07 06:27:34;;;;;;;9.73;7.07;;;4.40;99.90;;;;;;5089603;28;20260;-59
2022/11/07 06:30:00;;;;;;;11.37;7.67;;;4.40;99.90;;;;;;5071582;28;20276;-60
2022/11/07 06:32:27;;;;;;;7.83;5.87;;;4.40;99.90;;;;;;5075441;28;20202;-60
2022/11/07 06:34:52;;;;;;;26.13;8.37;;;4.40;99.90;;;;;;5070724;28;20274;-60
2022/11/07 06:37:18;;;;;;;31.17;8.43;;;4.40;99.90;;;;;;5079550;28;20915;-59
2022/11/07 06:39:44;;;;;;;26.30;7.87;;;4.40;99.90;;;;;;5078627;28;20680;-60
2022/11/07 06:42:09;;;;;;;114.87;11.63;;;4.40;99.90;;;;;;5077424;28;20265;-59
2022/11/07 06:44:35;;;;;;;115.67;10.77;;;4.40;99.90;;;;;;5080353;28;20195;-59
2022/11/07 06:47:01;;;;;;;23.47;8.80;;;4.40;99.90;;;;;;5085404;28;20404;-59
2022/11/07 06:49:27;;;;;;;22.30;8.77;;;4.40;99.90;;;;;;5068177;28;20650;-59
2022/11/07 06:51:52;;;;;;;35.97;8.60;;;4.30;99.90;;;;;;5071405;28;20233;-60
2022/11/07 06:54:18;;;;;;;82.97;10.90;;;4.30;99.90;;;;;;5090977;28;20205;-59
2022/11/07 06:56:43;;;;;;;39.43;9.90;;;4.30;99.90;;;;;;5075807;28;20174;-59
2022/11/07 06:59:09;;;;;;;54.47;9.80;;;4.40;99.90;;;;;;5066198;28;20178;-60
2022/11/07 07:01:35;;;;;;;54.40;10.80;;;4.40;99.90;;;;;;5089934;28;20166;-60
2022/11/07 07:04:00;;;;;;;18.50;8.50;;;4.40;99.90;;;;;;5077163;28;20542;-59
2022/11/07 07:06:26;;;;;;;20.10;8.10;;;4.40;99.90;;;;;;5070943;28;20182;-62
2022/11/07 07:08:53;;;;;;;17.03;6.67;;;4.40;99.90;;;;;;5070761;28;20190;-59
2022/11/07 07:11:18;;;;;;;33.70;8.03;;;4.50;99.90;;;;;;5081341;28;20170;-59
2022/11/07 07:13:44;;;;;;;8.87;5.90;;;4.50;99.90;;;;;;5077645;28;20883;-59
2022/11/07 07:16:10;;;;;;;132.80;10.13;;;4.60;99.90;;;;;;5090410;28;20194;-59
2022/11/07 07:18:35;;;;;;;23.13;6.87;;;4.60;99.90;;;;;;5064929;28;20191;-59
2022/11/07 07:21:05;;;;;;;52.13;9.63;;;4.60;99.90;;;;;;5066930;28;20740;-59
2022/11/07 07:23:33;;;;;;;16.13;7.90;;;4.60;99.90;;;;;;5089721;28;20229;-59
2022/11/07 07:26:02;;;;;;;20.33;7.90;;;4.70;99.90;;;;;;5078689;28;20444;-59
2022/11/07 07:28:28;;;;;;;30.07;7.97;;;4.70;99.90;;;;;;5079240;28;20462;-59
2022/11/07 07:31:05;;;;;;;14.10;7.10;;;4.80;99.90;;;;;;5065114;28;20413;-59
2022/11/07 07:33:31;;;;;;;23.17;7.30;;;4.80;99.90;;;;;;5062373;28;20211;-59
2022/11/07 07:35:57;;;;;;;15.47;7.93;;;4.80;99.90;;;;;;5069892;28;20468;-58
2022/11/07 07:38:22;;;;;;;47.87;11.10;;;4.80;99.90;;;;;;5048234;28;20274;-59
2022/11/07 07:40:48;;;;;;;27.53;11.47;;;4.90;99.90;;;;;;5068910;28;20540;-59
2022/11/07 07:43:13;;;;;;;28.33;12.03;;;4.90;99.90;;;;;;5083508;28;20208;-60
2022/11/07 07:45:39;;;;;;;49.10;12.70;;;4.90;99.90;;;;;;5071573;28;20205;-59
2022/11/07 07:48:05;;;;;;;25.03;11.03;;;4.90;99.90;;;;;;5053040;28;21387;-60
2022/11/07 07:50:30;;;;;;;23.40;9.77;;;4.90;99.90;;;;;;5083079;28;20197;-59
2022/11/07 07:52:57;;;;;;;16.57;9.50;;;5.00;99.90;;;;;;5066002;28;20198;-59
2022/11/07 07:55:23;;;;;;;17.73;10.03;;;5.00;99.90;;;;;;5084687;28;20464;-59
2022/11/07 07:57:49;;;;;;;23.97;10.80;;;5.10;99.90;;;;;;5091730;28;20412;-60
2022/11/07 08:00:15;;;;;;;27.50;11.60;;;5.10;99.90;;;;;;5062323;28;20423;-59
2022/11/07 08:02:42;;;;;;;30.73;12.17;;;5.10;99.90;;;;;;5073723;28;20273;-59
2022/11/07 08:05:12;;;;;;;28.57;13.00;;;5.20;99.90;;;;;;5064186;28;20194;-59
2022/11/07 08:07:48;;;;;;;31.30;13.93;;;5.20;99.90;;;;;;5069183;28;20453;-59
2022/11/07 08:10:15;;;;;;;34.77;14.20;;;5.30;99.90;;;;;;5059224;28;20445;-59
2022/11/07 08:12:45;;;;;;;31.90;15.00;;;5.30;99.90;;;;;;5085004;28;20495;-59
2022/11/07 08:15:12;;;;;;;33.97;14.23;;;5.40;99.90;;;;;;5077744;28;20448;-59
2022/11/07 08:17:38;;;;;;;23.77;12.10;;;5.40;99.90;;;;;;5069992;28;20482;-59
2022/11/07 08:20:04;;;;;;;15.30;8.90;;;5.50;99.90;;;;;;5082808;28;20432;-59
2022/11/07 08:22:29;;;;;;;25.00;9.00;;;5.60;99.90;;;;;;5069967;28;20420;-59
2022/11/07 08:24:55;;;;;;;23.87;8.40;;;5.70;99.90;;;;;;5066708;28;20462;-59
2022/11/07 08:27:21;;;;;;;15.93;8.57;;;5.70;99.90;;;;;;5085454;28;20178;-59
2022/11/07 08:29:46;;;;;;;13.63;8.33;;;5.80;99.90;;;;;;5069572;28;20182;-59
2022/11/07 08:32:12;;;;;;;14.07;8.30;;;5.80;99.90;;;;;;5066789;28;20209;-61
2022/11/07 08:34:38;;;;;;;14.43;9.40;;;5.90;99.90;;;;;;5080459;28;20311;-59
2022/11/07 08:37:03;;;;;;;14.40;7.83;;;5.90;99.90;;;;;;5084146;28;20176;-59
2022/11/07 08:39:29;;;;;;;13.23;7.70;;;6.00;99.90;;;;;;5065155;28;20254;-59
2022/11/07 08:41:55;;;;;;;14.00;9.33;;;6.10;99.90;;;;;;5059463;28;20182;-59
2022/11/07 08:44:20;;;;;;;14.20;9.30;;;6.20;99.90;;;;;;5075754;28;20190;-59
2022/11/07 08:46:46;;;;;;;14.13;7.47;;;6.20;99.90;;;;;;5067094;28;20710;-59
2022/11/07 08:49:11;;;;;;;13.37;7.57;;;6.30;99.90;;;;;;5066658;28;20297;-59
2022/11/07 08:51:37;;;;;;;13.03;8.53;;;6.40;99.90;;;;;;5067328;28;20645;-60
2022/11/07 08:54:03;;;;;;;11.73;8.30;;;6.50;99.90;;;;;;5057570;28;20688;-61
2022/11/07 08:56:29;;;;;;;15.50;8.70;;;6.60;99.90;;;;;;5110259;22;20220;-54
2022/11/07 08:58:55;;;;;;;15.60;9.03;;;6.60;99.90;;;;;;5101367;28;20222;-54
2022/11/07 09:01:20;;;;;;;13.17;9.10;;;6.70;99.90;;;;;;5104336;28;20514;-54
2022/11/07 09:03:46;;;;;;;17.77;9.67;;;6.70;99.90;;;;;;5107357;28;20177;-54
2022/11/07 09:06:12;;;;;;;20.20;10.13;;;6.80;99.90;;;;;;5106276;28;20193;-56
2022/11/07 09:08:39;;;;;;;17.83;11.13;;;6.80;99.90;;;;;;5082554;28;20206;-54
2022/11/07 09:11:05;;;;;;;20.80;11.33;;;6.90;99.90;;;;;;5079606;28;20201;-56
2022/11/07 09:13:32;;;;;;;20.17;11.63;;;6.90;99.90;;;;;;5068642;28;20463;-53
2022/11/07 09:15:59;;;;;;;23.73;12.77;;;7.00;99.90;;;;;;5071529;28;20539;-54
2022/11/07 09:18:28;;;;;;;22.57;14.33;;;7.10;99.90;;;;;;5084080;28;20430;-54
2022/11/07 09:20:53;;;;;;;28.00;14.03;;;7.20;99.90;;;;;;5087951;28;20466;-54
2022/11/07 09:23:19;;;;;;;24.30;14.87;;;7.40;99.90;;;;;;5087406;28;20439;-54
2022/11/07 09:25:45;;;;;;;24.00;14.23;;;7.60;99.90;;;;;;5079932;28;20209;-54
2022/11/07 09:28:11;;;;;;;38.27;16.37;;;7.70;99.90;;;;;;5079101;28;20174;-56
2022/11/07 09:30:37;;;;;;;30.53;15.87;;;7.90;99.90;;;;;;5083139;28;20428;-55
2022/11/07 09:33:03;;;;;;;26.20;15.00;;;8.10;99.90;;;;;;5076903;28;20711;-57
2022/11/07 09:35:28;;;;;;;26.83;13.63;;;8.30;99.90;;;;;;5084766;28;20246;-55
2022/11/07 09:37:54;;;;;;;23.70;14.00;;;8.40;99.90;;;;;;5085946;28;20708;-57
2022/11/07 09:40:29;;;;;;;23.40;13.00;;;8.60;99.90;;;;;;5086948;28;20181;-55
2022/11/07 09:43:13;;;;;;;27.70;14.30;;;8.70;99.90;;;;;;5079399;28;20177;-55
2022/11/07 09:45:55;;;;;;;18.70;11.80;;;8.90;99.90;;;;;;5084407;28;20467;-55
2022/11/07 09:48:24;;;;;;;22.83;11.73;;;9.10;99.90;;;;;;5088537;28;20396;-55
2022/11/07 09:50:51;;;;;;;18.57;10.47;;;9.20;99.90;;;;;;5080472;28;20467;-54
2022/11/07 09:53:32;;;;;;;15.50;9.60;;;9.30;99.90;;;;;;5088064;28;20505;-54
2022/11/07 09:56:03;;;;;;;17.13;9.30;;;9.40;99.90;;;;;;5087656;28;20633;-54
2022/11/07 09:58:43;;;;;;;16.40;8.97;;;9.50;99.90;;;;;;5077828;28;20990;-54
2022/11/07 10:01:14;;;;;;;17.90;6.80;;;9.70;99.90;;;;;;5084571;28;20477;-54
2022/11/07 10:03:40;;;;;;;15.00;9.33;;;9.80;99.90;;;;;;5075144;28;20977;-54
2022/11/07 10:06:18;;;;;;;21.20;10.43;;;9.80;99.90;;;;;;5068606;28;20424;-56
2022/11/07 10:09:06;;;;;;;17.63;10.90;;;10.00;99.90;;;;;;5081685;28;20832;-58
2022/11/07 10:11:41;;;;;;;20.80;9.30;;;10.00;99.90;;;;;;5087225;28;20458;-55
2022/11/07 10:14:15;;;;;;;18.57;9.53;;;10.10;99.90;;;;;;5088964;28;20473;-56
2022/11/07 10:16:48;;;;;;;12.57;7.57;;;10.30;99.90;;;;;;5085643;28;20521;-55
2022/11/07 10:19:37;;;;;;;11.37;5.93;;;10.50;99.90;;;;;;5091628;28;20887;-55
2022/11/07 10:22:20;;;;;;;9.03;5.20;;;10.60;99.90;;;;;;5075177;28;20459;-54
2022/11/07 10:25:15;;;;;;;8.10;4.53;;;10.80;99.90;;;;;;5080903;28;20514;-54
2022/11/07 10:27:42;;;;;;;7.23;4.23;;;10.90;99.90;;;;;;5090958;28;20459;-54
2022/11/07 10:30:19;;;;;;;6.07;3.97;;;11.10;99.90;;;;;;5092014;28;20472;-55
2022/11/07 10:32:55;;;;;;;6.27;3.90;;;11.10;99.90;;;;;;5082195;28;20466;-57
2022/11/07 10:35:30;;;;;;;6.37;4.03;;;11.00;99.90;;;;;;5082618;28;20423;-54
2022/11/07 10:37:59;;;;;;;7.30;3.83;;;11.10;99.90;;;;;;5089647;28;20510;-55
2022/11/07 10:40:35;;;;;;;5.83;3.33;;;11.10;99.90;;;;;;5089472;28;20454;-55
2022/11/07 10:43:06;;;;;;;4.30;3.13;;;11.20;99.90;;;;;;5084224;28;20424;-55
2022/11/07 10:45:32;;;;;;;6.03;3.40;;;11.30;99.90;;;;;;5083555;28;21150;-55
2022/11/07 10:48:03;;;;;;;3.90;3.00;;;11.40;99.90;;;;;;5091369;28;20411;-55
2022/11/07 10:50:29;;;;;;;5.27;2.97;;;11.50;99.90;;;;;;5091934;28;21011;-55
2022/11/07 10:52:56;;;;;;;7.23;2.40;;;11.60;99.90;;;;;;5085979;28;20943;-57
2022/11/07 10:55:24;;;;;;;6.23;3.20;;;11.70;99.90;;;;;;5086048;28;20423;-57
2022/11/07 10:57:53;;;;;;;6.33;3.30;;;11.80;99.90;;;;;;5091086;28;20460;-54
2022/11/07 11:00:27;;;;;;;7.03;2.93;;;11.90;99.90;;;;;;5087366;28;20446;-55
2022/11/07 11:02:55;;;;;;;3.53;2.50;;;12.10;99.90;;;;;;5075722;28;20455;-57
2022/11/07 11:05:29;;;;;;;5.47;2.63;;;12.30;99.90;;;;;;5091564;28;20407;-57
2022/11/07 11:08:05;;;;;;;5.10;2.80;;;12.50;99.90;;;;;;5091258;28;20407;-56
2022/11/07 11:10:37;;;;;;;6.50;2.77;;;12.70;99.90;;;;;;5088494;28;20435;-56
2022/11/07 11:13:02;;;;;;;4.17;2.30;;;12.80;99.90;;;;;;5089280;28;20981;-58
2022/11/07 11:15:28;;;;;;;4.00;2.50;;;13.00;99.90;;;;;;5090940;28;20404;-56
2022/11/07 11:18:04;;;;;;;6.43;2.47;;;13.10;99.90;;;;;;5084856;28;20182;-57
2022/11/07 11:20:39;;;;;;;3.57;2.17;;;13.20;99.90;;;;;;5091412;28;20177;-57
2022/11/07 11:23:14;;;;;;;2.60;2.40;;;13.40;99.40;;;;;;5087875;28;20435;-57
2022/11/07 11:25:44;;;;;;;4.70;2.50;;;13.60;98.40;;;;;;5087505;28;20451;-57
2022/11/07 11:28:27;;;;;;;9.60;2.90;;;13.80;95.80;;;;;;5085231;28;20435;-57
2022/11/07 11:31:04;;;;;;;3.70;2.60;;;14.00;94.80;;;;;;5070756;28;20404;-56
2022/11/07 11:33:46;;;;;;;5.07;2.93;;;14.20;94.60;;;;;;5085679;28;20465;-57
2022/11/07 11:36:26;;;;;;;5.20;3.60;;;14.40;93.90;;;;;;5090408;28;20930;-56
2022/11/07 11:38:53;;;;;;;4.20;2.43;;;14.60;92.90;;;;;;5082194;28;20525;-59
2022/11/07 11:41:31;;;;;;;4.57;2.77;;;14.80;90.00;;;;;;5089556;28;20801;-57
2022/11/07 11:44:03;;;;;;;2.50;2.30;;;14.90;83.20;;;;;;5080127;28;20526;-57
2022/11/07 11:46:37;;;;;;;2.47;2.17;;;15.00;78.60;;;;;;5088674;28;20575;-57
2022/11/07 11:49:42;;;;;;;5.10;2.63;;;14.90;78.80;;;;;;5090710;28;20906;-57
2022/11/07 11:52:15;;;;;;;5.73;2.77;;;14.90;77.70;;;;;;5073291;28;20455;-57
2022/11/07 11:54:42;;;;;;;3.93;2.40;;;15.00;80.50;;;;;;5087697;28;20910;-58
2022/11/07 11:57:14;;;;;;;2.87;2.00;;;15.20;77.40;;;;;;5088497;28;20498;-57
2022/11/07 12:00:02;;;;;;;4.63;2.40;;;15.30;73.70;;;;;;5090482;28;20399;-56
2022/11/07 12:02:46;;;;;;;4.23;2.50;;;15.30;68.80;;;;;;5083943;28;20438;-57
2022/11/07 12:05:33;;;;;;;5.37;2.30;;;15.20;71.50;;;;;;5077990;28;20526;-56
2022/11/07 12:08:29;;;;;;;3.43;2.60;;;15.20;70.30;;;;;;5083444;28;20415;-59
2022/11/07 12:11:05;;;;;;;5.20;2.17;;;15.20;69.50;;;;;;5079753;28;20949;-58
2022/11/07 12:14:02;;;;;;;6.03;2.40;;;15.40;70.00;;;;;;5089260;28;20486;-56
2022/11/07 12:16:46;;;;;;;6.63;2.20;;;15.60;67.60;;;;;;5090992;28;20412;-57
2022/11/07 12:19:14;;;;;;;3.40;2.30;;;15.90;66.90;;;;;;5085472;28;20503;-59
2022/11/07 12:22:09;;;;;;;3.37;2.53;;;16.30;64.40;;;;;;5089436;28;21254;-56
2022/11/07 12:24:55;;;;;;;3.70;2.13;;;16.00;62.90;;;;;;5084331;28;20430;-57
2022/11/07 12:27:27;;;;;;;3.40;2.00;;;15.50;65.60;;;;;;5078228;28;20444;-58
2022/11/07 12:30:19;;;;;;;4.20;2.03;;;15.10;68.40;;;;;;5083570;28;21099;-57
2022/11/07 12:32:54;;;;;;;5.43;2.37;;;14.80;74.70;;;;;;5079344;28;20547;-59
2022/11/07 12:35:38;;;;;;;3.80;2.40;;;14.60;76.80;;;;;;5078257;28;20454;-59
2022/11/07 12:38:35;;;;;;;6.50;3.50;;;14.50;80.30;;;;;;5083473;28;20445;-61
2022/11/07 12:41:23;;;;;;;4.00;2.53;;;14.40;82.70;;;;;;5085509;28;20435;-58
2022/11/07 12:44:18;;;;;;;5.23;2.70;;;14.30;84.50;;;;;;5079840;28;20427;-59
2022/11/07 12:46:52;;;;;;;2.97;2.40;;;14.20;82.40;;;;;;5085704;28;20580;-56
2022/11/07 12:49:42;;;;;;;4.73;2.70;;;14.20;82.30;;;;;;5082118;28;20502;-61
2022/11/07 12:52:13;;;;;;;8.10;2.37;;;14.30;85.20;;;;;;5085734;28;20455;-57
2022/11/07 12:54:47;;;;;;;2.97;2.07;;;14.40;84.30;;;;;;5078783;28;20424;-58
2022/11/07 12:57:20;;;;;;;7.20;2.37;;;14.60;79.60;;;;;;5078736;28;20511;-60
2022/11/07 13:00:01;;;;;;;3.23;2.10;;;14.70;77.90;;;;;;5084389;28;20424;-58
2022/11/07 13:02:42;;;;;;;5.67;2.43;;;14.90;71.90;;;;;;5076936;28;20825;-60
2022/11/07 13:05:19;;;;;;;5.57;2.30;;;15.00;69.00;;;;;;5086219;28;20427;-59
2022/11/07 13:07:52;;;;;;;3.57;2.33;;;15.20;67.20;;;;;;5079699;28;20462;-58
2022/11/07 13:10:47;;;;;;;2.97;2.23;;;15.20;65.90;;;;;;5079415;28;20819;-59